Time;durP1;ratioP1;P1;durP2;ratioP2;P2;SDS_P1;SDS_P2;PMS_P1;PMS_P2;Temp;Humidity;BMP_temperature;BMP_pressure;BME280_temperature;BME280_humidity;BME280_pressure;Samples;Min_cycle;Max_cycle;Signal;HPM_P1;HPM_P2
2021/12/18 00:01:10;;;;;;;0.00;0.00;;;7.10;99.90;;;;;;4995960;28;20577;-68
2021/12/18 00:03:35;;;;;;;0.00;0.00;;;7.00;99.90;;;;;;4992796;28;20033;-69
2021/12/18 00:06:02;;;;;;;0.00;0.00;;;7.00;99.90;;;;;;4992780;28;20042;-69
2021/12/18 00:08:28;;;;;;;0.00;0.00;;;7.00;99.90;;;;;;4991708;28;20112;-68
2021/12/18 00:10:55;;;;;;;0.00;0.00;;;7.00;99.90;;;;;;4994765;28;20489;-69
2021/12/18 00:13:22;;;;;;;0.00;0.00;;;6.90;99.90;;;;;;4992999;28;20034;-68
2021/12/18 00:15:47;;;;;;;0.00;0.00;;;6.90;99.90;;;;;;4994241;28;20509;-69
2021/12/18 00:18:13;;;;;;;0.00;0.00;;;6.90;99.90;;;;;;5005011;28;20129;-68
2021/12/18 00:20:39;;;;;;;0.00;0.00;;;6.90;99.90;;;;;;4999425;28;20061;-68
2021/12/18 00:23:05;;;;;;;0.00;0.00;;;6.90;99.90;;;;;;4997619;28;20465;-68
2021/12/18 00:25:31;;;;;;;0.00;0.00;;;6.90;99.90;;;;;;4992807;28;20026;-69
2021/12/18 00:27:56;;;;;;;0.00;0.00;;;6.90;99.90;;;;;;4993106;28;20033;-69
2021/12/18 00:30:22;;;;;;;0.00;0.00;;;6.90;99.90;;;;;;4998486;28;20469;-70
2021/12/18 00:32:47;;;;;;;0.00;0.00;;;6.90;99.90;;;;;;4992841;28;20054;-69
2021/12/18 00:35:14;;;;;;;0.00;0.00;;;6.80;99.90;;;;;;4992584;28;20018;-69
2021/12/18 00:37:40;;;;;;;0.00;0.00;;;6.90;99.90;;;;;;4992635;28;20023;-69
2021/12/18 00:40:10;;;;;;;0.00;0.00;;;6.80;99.90;;;;;;4995471;28;20037;-68
2021/12/18 00:45:07;;;;;;;0.00;0.00;;;6.80;99.90;;;;;;4992593;28;20061;-68
2021/12/18 00:47:33;;;;;;;0.00;0.00;;;6.80;99.90;;;;;;5000835;28;20109;-68
2021/12/18 00:49:58;;;;;;;0.00;0.00;;;6.80;99.90;;;;;;4992365;28;20116;-69
2021/12/18 00:52:24;;;;;;;0.00;0.00;;;6.80;99.90;;;;;;4992068;28;20154;-68
2021/12/18 00:54:50;;;;;;;0.00;0.00;;;6.80;99.90;;;;;;4992584;28;20058;-68
2021/12/18 00:57:16;;;;;;;0.00;0.00;;;6.80;99.90;;;;;;4994167;28;20373;-69
2021/12/18 00:59:42;;;;;;;0.00;0.00;;;6.90;99.90;;;;;;4991900;28;20161;-69
2021/12/18 01:02:07;;;;;;;0.00;0.00;;;6.80;99.90;;;;;;4991595;28;20033;-68
2021/12/18 01:04:33;;;;;;;0.00;0.00;;;6.90;99.90;;;;;;4992152;28;20113;-69
2021/12/18 01:06:59;;;;;;;0.00;0.00;;;6.90;99.90;;;;;;4992222;28;20392;-69
2021/12/18 01:09:42;;;;;;;0.00;0.00;;;6.90;99.90;;;;;;4998732;28;20030;-69
2021/12/18 01:12:08;;;;;;;0.00;0.00;;;6.80;99.90;;;;;;5002529;28;20110;-69
2021/12/18 01:24:59;;;;;;;0.00;0.00;;;6.90;99.90;;;;;;5002632;28;19912;-69
2021/12/18 01:27:25;;;;;;;0.00;0.00;;;6.90;99.90;;;;;;4995865;28;20261;-68
2021/12/18 01:29:51;;;;;;;0.00;0.00;;;6.90;99.90;;;;;;5004083;28;20133;-69
2021/12/18 01:32:17;;;;;;;0.00;0.00;;;6.90;99.90;;;;;;4995228;28;20037;-68
2021/12/18 01:34:44;;;;;;;0.00;0.00;;;6.90;99.90;;;;;;4995455;28;20030;-69
2021/12/18 01:37:09;;;;;;;0.00;0.00;;;6.90;99.90;;;;;;4995834;28;20481;-69
2021/12/18 01:39:35;;;;;;;0.00;0.00;;;6.90;99.90;;;;;;4995445;28;20035;-69
2021/12/18 01:52:57;;;;;;;0.00;0.00;;;6.90;99.90;;;;;;4995810;28;20045;-69
2021/12/18 01:55:34;;;;;;;0.00;0.00;;;6.90;99.90;;;;;;4995017;28;20014;-68
2021/12/18 01:58:00;;;;;;;0.00;0.00;;;6.80;99.90;;;;;;4995498;28;20037;-69
2021/12/18 02:00:48;;;;;;;0.00;0.00;;;6.80;99.90;;;;;;4994482;28;20030;-68
2021/12/18 02:03:13;;;;;;;0.00;0.00;;;6.80;99.90;;;;;;4995349;28;20057;-69
2021/12/18 02:05:39;;;;;;;0.00;0.00;;;6.70;99.90;;;;;;4995625;28;20068;-69
2021/12/18 02:08:05;;;;;;;0.00;0.00;;;6.80;99.90;;;;;;4995373;28;20450;-69
2021/12/18 02:10:42;;;;;;;0.00;0.00;;;6.70;99.90;;;;;;4994225;28;20061;-69
2021/12/18 02:13:22;;;;;;;0.00;0.00;;;6.70;99.90;;;;;;4995220;28;20030;-68
2021/12/18 02:21:11;;;;;;;0.00;0.00;;;6.70;99.90;;;;;;4999581;28;20033;-69
2021/12/18 02:23:37;;;;;;;0.00;0.00;;;6.70;99.90;;;;;;4994871;28;20026;-69
2021/12/18 02:26:03;;;;;;;0.00;0.00;;;6.80;99.90;;;;;;4995425;28;20050;-69
2021/12/18 02:28:28;;;;;;;0.00;0.00;;;6.70;99.90;;;;;;4994645;28;20026;-69
2021/12/18 02:30:56;;;;;;;0.00;0.00;;;6.80;99.90;;;;;;4994261;28;20027;-68
2021/12/18 02:33:22;;;;;;;0.00;0.00;;;6.70;99.90;;;;;;4994728;28;20022;-68
2021/12/18 02:35:50;;;;;;;0.00;0.00;;;6.70;99.90;;;;;;4997750;28;20105;-69
2021/12/18 02:38:43;;;;;;;0.00;0.00;;;6.70;99.90;;;;;;4995399;28;20038;-69
2021/12/18 02:41:21;;;;;;;0.00;0.00;;;6.80;99.90;;;;;;4994017;28;20121;-69
2021/12/18 02:43:47;;;;;;;0.00;0.00;;;6.80;99.90;;;;;;4994614;28;20026;-68
2021/12/18 02:46:17;;;;;;;0.00;0.00;;;6.80;99.90;;;;;;4992803;28;20031;-69
2021/12/18 02:48:43;;;;;;;0.00;0.00;;;6.70;99.90;;;;;;4986044;28;20389;-69
2021/12/18 02:51:11;;;;;;;0.00;0.00;;;6.80;99.90;;;;;;4993359;28;20126;-69
2021/12/18 02:53:40;;;;;;;0.00;0.00;;;6.80;99.90;;;;;;4994365;28;20022;-69
2021/12/18 02:56:08;;;;;;;0.00;0.00;;;6.80;99.90;;;;;;4991633;28;20084;-69
2021/12/18 02:58:39;;;;;;;0.00;0.00;;;6.80;99.90;;;;;;4994310;28;20038;-70
2021/12/18 03:01:06;;;;;;;0.00;0.00;;;6.80;99.90;;;;;;4992578;28;20038;-69
2021/12/18 03:03:35;;;;;;;0.00;0.00;;;6.70;99.90;;;;;;4993936;28;20041;-70
2021/12/18 03:06:20;;;;;;;0.00;0.00;;;6.80;99.90;;;;;;4983687;28;20030;-69
2021/12/18 03:08:58;;;;;;;0.00;0.00;;;6.80;99.90;;;;;;4989620;28;20031;-69
2021/12/18 03:23:04;;;;;;;0.00;0.00;;;6.80;99.90;;;;;;4992162;28;20054;-68
2021/12/18 03:24:59;;;;;;;0.00;0.00;;;6.80;99.90;;;;;;4990553;28;20445;-69
2021/12/18 03:27:25;;;;;;;0.00;0.00;;;6.80;99.90;;;;;;4992918;28;20030;-69
2021/12/18 03:29:51;;;;;;;0.00;0.00;;;6.80;99.90;;;;;;4993616;28;20030;-69
2021/12/18 03:32:17;;;;;;;0.00;0.00;;;6.70;99.90;;;;;;4985947;28;20049;-68
2021/12/18 03:34:43;;;;;;;0.00;0.00;;;6.70;99.90;;;;;;4992508;28;20037;-70
2021/12/18 03:37:09;;;;;;;0.00;0.00;;;6.70;99.90;;;;;;4987783;28;20038;-69
2021/12/18 03:39:35;;;;;;;0.00;0.00;;;6.70;99.90;;;;;;4992868;28;20057;-69
2021/12/18 03:42:01;;;;;;;0.00;0.00;;;6.70;99.90;;;;;;4992084;28;20034;-69
2021/12/18 03:44:27;;;;;;;0.00;0.00;;;6.70;99.90;;;;;;4993438;28;20485;-69
2021/12/18 03:46:52;;;;;;;0.00;0.00;;;6.70;99.90;;;;;;4991205;28;20026;-69
2021/12/18 03:49:18;;;;;;;0.00;0.00;;;6.80;99.90;;;;;;4992838;28;20034;-69
2021/12/18 03:51:44;;;;;;;0.00;0.00;;;6.80;99.90;;;;;;4991872;28;20037;-69
2021/12/18 03:54:09;;;;;;;0.00;0.00;;;6.80;99.90;;;;;;4987021;28;20026;-69
2021/12/18 03:56:35;;;;;;;0.00;0.00;;;6.80;99.90;;;;;;4993662;28;20041;-69
2021/12/18 03:59:01;;;;;;;0.00;0.00;;;6.80;99.90;;;;;;4993041;28;20066;-69
2021/12/18 04:01:27;;;;;;;0.00;0.00;;;6.80;99.90;;;;;;4991768;28;20026;-69
2021/12/18 04:03:52;;;;;;;0.00;0.00;;;6.80;99.90;;;;;;4992798;28;20476;-70
2021/12/18 04:06:19;;;;;;;0.00;0.00;;;6.80;99.90;;;;;;4992451;28;20120;-69
2021/12/18 04:08:44;;;;;;;0.00;0.00;;;6.80;99.90;;;;;;4992915;28;20081;-69
2021/12/18 04:11:10;;;;;;;0.00;0.00;;;6.80;99.90;;;;;;4991845;28;20030;-70
2021/12/18 04:13:35;;;;;;;0.00;0.00;;;6.80;99.90;;;;;;4992714;28;20365;-69
2021/12/18 04:16:01;;;;;;;0.00;0.00;;;6.80;99.90;;;;;;4991783;28;20044;-70
2021/12/18 04:18:27;;;;;;;0.00;0.00;;;6.80;99.90;;;;;;4992570;28;20438;-70
2021/12/18 04:20:52;;;;;;;0.00;0.00;;;6.80;99.90;;;;;;4991672;28;20026;-69
2021/12/18 04:23:18;;;;;;;0.00;0.00;;;6.80;99.90;;;;;;4992938;28;20461;-69
2021/12/18 04:25:44;;;;;;;0.00;0.00;;;6.80;99.90;;;;;;4985261;28;20029;-69
2021/12/18 04:28:09;;;;;;;0.00;0.00;;;6.80;99.90;;;;;;4992135;28;20049;-69
2021/12/18 04:30:35;;;;;;;0.00;0.00;;;6.70;99.90;;;;;;4992128;28;20029;-69
2021/12/18 04:33:01;;;;;;;0.00;0.00;;;6.60;99.90;;;;;;4992844;28;20035;-69
2021/12/18 04:35:27;;;;;;;0.00;0.00;;;6.60;99.90;;;;;;4992694;28;20053;-69
2021/12/18 04:37:53;;;;;;;0.00;0.00;;;6.50;99.90;;;;;;4992938;28;20032;-69
2021/12/18 04:40:24;;;;;;;0.00;0.00;;;6.50;99.90;;;;;;4992201;28;20121;-69
2021/12/18 04:42:50;;;;;;;0.00;0.00;;;6.40;99.90;;;;;;4994048;28;20351;-69
2021/12/18 04:45:15;;;;;;;0.00;0.00;;;6.40;99.90;;;;;;5000114;28;20057;-69
2021/12/18 04:47:41;;;;;;;0.00;0.00;;;6.40;99.90;;;;;;4991099;28;20039;-69
2021/12/18 04:50:07;;;;;;;0.00;0.00;;;6.30;99.90;;;;;;4992246;28;20030;-69
2021/12/18 04:52:32;;;;;;;0.00;0.00;;;6.30;99.90;;;;;;4992693;28;20032;-69
2021/12/18 04:54:58;;;;;;;0.00;0.00;;;6.20;99.90;;;;;;4992593;28;20078;-69
2021/12/18 04:57:23;;;;;;;0.00;0.00;;;6.20;99.90;;;;;;4993212;28;20026;-69
2021/12/18 04:59:49;;;;;;;0.00;0.00;;;6.10;99.90;;;;;;4991758;28;20041;-69
2021/12/18 05:02:21;;;;;;;0.00;0.00;;;6.10;99.90;;;;;;4992676;28;20030;-69
2021/12/18 05:04:47;;;;;;;0.00;0.00;;;6.10;99.90;;;;;;4999651;28;20033;-69
2021/12/18 05:07:12;;;;;;;0.00;0.00;;;6.10;99.90;;;;;;4996144;28;20027;-69
2021/12/18 05:09:39;;;;;;;0.00;0.00;;;6.10;99.90;;;;;;4996287;28;20026;-69
2021/12/18 05:12:06;;;;;;;0.00;0.00;;;6.10;99.90;;;;;;4995409;28;20476;-69
2021/12/18 05:14:31;;;;;;;0.00;0.00;;;6.10;99.90;;;;;;4996020;28;20676;-69
2021/12/18 05:16:57;;;;;;;0.00;0.00;;;6.10;99.90;;;;;;4996020;28;20026;-69
2021/12/18 05:19:22;;;;;;;0.00;0.00;;;6.10;99.90;;;;;;5001152;28;20137;-69
2021/12/18 05:21:48;;;;;;;0.00;0.00;;;6.20;99.90;;;;;;4995529;28;20076;-69
2021/12/18 05:24:15;;;;;;;0.00;0.00;;;6.20;99.90;;;;;;4995733;28;20057;-69
2021/12/18 05:26:40;;;;;;;0.00;0.00;;;6.20;99.90;;;;;;4995690;28;20022;-69
2021/12/18 05:29:06;;;;;;;0.00;0.00;;;6.10;99.90;;;;;;4995432;28;20026;-69
2021/12/18 05:31:31;;;;;;;0.00;0.00;;;6.10;99.90;;;;;;4995017;28;20022;-69
2021/12/18 05:34:00;;;;;;;0.00;0.00;;;6.10;99.90;;;;;;4995690;28;20046;-70
2021/12/18 05:36:33;;;;;;;0.00;0.00;;;6.20;99.90;;;;;;4999051;28;20033;-69
2021/12/18 05:39:05;;;;;;;0.00;0.00;;;6.20;99.90;;;;;;4995838;28;20027;-69
2021/12/18 05:41:31;;;;;;;0.00;0.00;;;6.20;99.90;;;;;;4994801;28;20397;-69
2021/12/18 05:43:56;;;;;;;0.00;0.00;;;6.20;99.90;;;;;;4995526;28;20030;-69
2021/12/18 05:46:22;;;;;;;0.00;0.00;;;6.20;99.90;;;;;;4995630;28;20481;-69
2021/12/18 05:48:48;;;;;;;0.00;0.00;;;6.20;99.90;;;;;;4995377;28;20026;-69
2021/12/18 05:51:13;;;;;;;0.00;0.00;;;6.20;99.90;;;;;;4994888;28;20026;-69
2021/12/18 05:53:39;;;;;;;0.00;0.00;;;6.20;99.90;;;;;;4995459;28;20018;-69
2021/12/18 05:56:04;;;;;;;0.00;0.00;;;6.20;99.90;;;;;;4994983;28;20694;-69
2021/12/18 05:58:30;;;;;;;0.00;0.00;;;6.20;99.90;;;;;;4994997;28;20033;-69
2021/12/18 06:00:55;;;;;;;0.00;0.00;;;6.20;99.90;;;;;;4994768;28;20041;-69
2021/12/18 06:03:20;;;;;;;0.00;0.00;;;6.20;99.90;;;;;;4994240;28;20091;-69
2021/12/18 06:05:46;;;;;;;0.00;0.00;;;6.20;99.90;;;;;;4995667;28;20030;-69
2021/12/18 06:08:14;;;;;;;0.00;0.00;;;6.20;99.90;;;;;;4995176;28;20034;-69
2021/12/18 06:10:39;;;;;;;0.00;0.00;;;6.20;99.90;;;;;;4985533;28;20488;-69
2021/12/18 06:13:05;;;;;;;0.00;0.00;;;6.20;99.90;;;;;;4994427;28;20054;-69
2021/12/18 06:15:31;;;;;;;0.00;0.00;;;6.20;99.90;;;;;;4994943;28;20033;-69
2021/12/18 06:17:58;;;;;;;0.00;0.00;;;6.30;99.90;;;;;;4999317;28;20114;-69
2021/12/18 06:20:25;;;;;;;0.00;0.00;;;6.20;99.90;;;;;;4993572;28;20035;-69
2021/12/18 06:22:51;;;;;;;0.00;0.00;;;6.30;99.90;;;;;;5003008;28;20465;-69
2021/12/18 06:25:16;;;;;;;0.00;0.00;;;6.20;99.90;;;;;;4987635;28;20030;-69
2021/12/18 06:27:42;;;;;;;0.00;0.00;;;6.20;99.90;;;;;;4995393;28;20157;-69
2021/12/18 06:30:11;;;;;;;0.00;0.00;;;6.20;99.90;;;;;;4994396;28;20084;-69
2021/12/18 06:32:38;;;;;;;0.00;0.00;;;6.20;99.90;;;;;;4994949;28;20031;-69
2021/12/18 06:35:04;;;;;;;0.00;0.00;;;6.20;99.90;;;;;;4994480;28;20188;-69
2021/12/18 06:37:30;;;;;;;0.00;0.00;;;6.20;99.90;;;;;;4994693;28;20536;-69
2021/12/18 06:39:55;;;;;;;0.00;0.00;;;6.20;99.90;;;;;;4993680;28;20050;-69
2021/12/18 06:42:21;;;;;;;0.00;0.00;;;6.20;99.90;;;;;;4994083;28;20019;-70
2021/12/18 06:44:46;;;;;;;0.00;0.00;;;6.20;99.90;;;;;;4995503;28;20081;-69
2021/12/18 06:47:12;;;;;;;0.00;0.00;;;6.10;99.90;;;;;;4997913;28;20503;-69
2021/12/18 06:49:38;;;;;;;0.00;0.00;;;6.20;99.90;;;;;;4995465;28;20032;-69
2021/12/18 06:52:04;;;;;;;0.00;0.00;;;6.20;99.90;;;;;;5003823;28;20022;-69
2021/12/18 06:54:29;;;;;;;0.00;0.00;;;6.20;99.90;;;;;;4982556;28;20050;-69
2021/12/18 06:56:55;;;;;;;0.00;0.00;;;6.20;99.90;;;;;;4994557;28;20482;-69
2021/12/18 06:59:21;;;;;;;0.00;0.00;;;6.20;99.90;;;;;;4994185;28;20038;-69
2021/12/18 07:01:46;;;;;;;0.00;0.00;;;6.20;99.90;;;;;;4993577;28;20030;-69
2021/12/18 07:04:12;;;;;;;0.00;0.00;;;6.20;99.90;;;;;;4994114;28;20085;-69
2021/12/18 07:06:37;;;;;;;0.00;0.00;;;6.30;99.90;;;;;;4997051;28;20045;-69
2021/12/18 07:09:03;;;;;;;0.00;0.00;;;6.20;99.90;;;;;;4993174;28;20026;-69
2021/12/18 07:11:29;;;;;;;0.00;0.00;;;6.20;99.90;;;;;;4998845;28;20064;-69
2021/12/18 07:13:55;;;;;;;0.00;0.00;;;6.20;99.90;;;;;;5000248;28;20496;-69
2021/12/18 07:16:21;;;;;;;0.00;0.00;;;6.30;99.90;;;;;;5001855;28;20054;-69
2021/12/18 07:18:47;;;;;;;0.00;0.00;;;6.30;99.90;;;;;;4991763;28;20026;-69
2021/12/18 07:21:13;;;;;;;0.00;0.00;;;6.30;99.90;;;;;;4996802;28;20109;-69
2021/12/18 07:23:39;;;;;;;0.00;0.00;;;6.30;99.90;;;;;;4992703;28;20030;-69
2021/12/18 07:26:04;;;;;;;0.00;0.00;;;6.30;99.90;;;;;;4994254;28;20033;-69
2021/12/18 07:28:30;;;;;;;0.00;0.00;;;6.30;99.90;;;;;;4993745;28;20097;-68
2021/12/18 07:30:56;;;;;;;0.00;0.00;;;6.30;99.90;;;;;;4992892;28;20477;-69
2021/12/18 07:33:21;;;;;;;0.00;0.00;;;6.30;99.90;;;;;;4993680;28;20061;-69
2021/12/18 07:35:47;;;;;;;0.00;0.00;;;6.40;99.90;;;;;;4997390;28;20524;-69
2021/12/18 07:38:14;;;;;;;0.00;0.00;;;6.30;99.90;;;;;;4994059;28;20034;-69
2021/12/18 07:40:39;;;;;;;0.00;0.00;;;6.30;99.90;;;;;;4992084;28;20030;-69
2021/12/18 07:43:05;;;;;;;0.00;0.00;;;6.40;99.90;;;;;;4993328;28;20035;-69
2021/12/18 07:45:34;;;;;;;0.00;0.00;;;6.40;99.90;;;;;;4997626;28;20030;-69
2021/12/18 07:48:00;;;;;;;0.00;0.00;;;6.40;99.90;;;;;;4993543;28;20026;-69
2021/12/18 07:50:26;;;;;;;0.00;0.00;;;6.40;99.90;;;;;;4992844;28;20460;-69
2021/12/18 07:52:52;;;;;;;0.00;0.00;;;6.40;99.90;;;;;;4996301;28;20041;-69
2021/12/18 07:55:17;;;;;;;0.00;0.00;;;6.40;99.90;;;;;;4996969;28;20037;-69
2021/12/18 07:57:44;;;;;;;0.00;0.00;;;6.40;99.90;;;;;;4992670;28;20058;-69
2021/12/18 08:00:12;;;;;;;0.00;0.00;;;6.40;99.90;;;;;;4994040;28;20022;-69
2021/12/18 08:02:39;;;;;;;0.00;0.00;;;6.40;99.90;;;;;;4986449;28;20034;-69
2021/12/18 08:05:05;;;;;;;0.00;0.00;;;6.50;99.90;;;;;;4991719;28;20030;-69
2021/12/18 08:07:31;;;;;;;0.00;0.00;;;6.40;99.90;;;;;;4992552;28;20023;-69
2021/12/18 08:09:57;;;;;;;0.00;0.00;;;6.50;99.90;;;;;;4990907;28;20034;-69
2021/12/18 08:12:22;;;;;;;0.00;0.00;;;6.50;99.90;;;;;;4990172;28;20026;-69
2021/12/18 08:14:48;;;;;;;0.00;0.00;;;6.50;99.90;;;;;;4992282;28;20104;-69
2021/12/18 08:17:14;;;;;;;0.00;0.00;;;6.50;99.90;;;;;;4992784;28;20072;-69
2021/12/18 08:19:40;;;;;;;0.00;0.00;;;6.50;99.90;;;;;;4992454;28;20081;-69
2021/12/18 08:22:06;;;;;;;0.00;0.00;;;6.60;99.90;;;;;;4978740;28;20110;-68
2021/12/18 08:24:31;;;;;;;0.00;0.00;;;6.60;99.90;;;;;;4992352;28;20103;-69
2021/12/18 08:26:57;;;;;;;0.00;0.00;;;6.60;99.90;;;;;;4991005;28;20030;-69
2021/12/18 08:29:22;;;;;;;0.00;0.00;;;6.60;99.90;;;;;;4991913;28;20105;-69
2021/12/18 08:31:48;;;;;;;0.00;0.00;;;6.60;99.90;;;;;;4991601;28;20027;-69
2021/12/18 08:34:14;;;;;;;0.00;0.00;;;6.60;99.90;;;;;;4992558;28;20080;-69
2021/12/18 08:36:39;;;;;;;0.00;0.00;;;6.70;99.90;;;;;;4994018;28;20029;-69
2021/12/18 08:39:05;;;;;;;0.00;0.00;;;6.70;99.90;;;;;;4996190;28;20105;-69
2021/12/18 08:41:32;;;;;;;0.00;0.00;;;6.70;99.90;;;;;;4995334;28;20656;-69
2021/12/18 08:43:57;;;;;;;0.00;0.00;;;6.70;99.90;;;;;;4995992;28;20026;-69
2021/12/18 08:46:23;;;;;;;0.00;0.00;;;6.80;99.90;;;;;;4996308;28;20080;-69
2021/12/18 08:48:48;;;;;;;0.00;0.00;;;6.70;99.90;;;;;;4995927;28;20074;-69
2021/12/18 08:51:14;;;;;;;0.00;0.00;;;6.80;99.90;;;;;;4995368;28;20061;-69
2021/12/18 08:53:39;;;;;;;0.00;0.00;;;6.80;99.90;;;;;;4995927;28;20026;-69
2021/12/18 08:56:05;;;;;;;0.00;0.00;;;6.80;99.90;;;;;;5003739;28;20034;-68
2021/12/18 08:58:30;;;;;;;0.00;0.00;;;6.80;99.90;;;;;;4996558;28;20053;-69
2021/12/18 09:00:57;;;;;;;0.00;0.00;;;6.80;99.90;;;;;;4995198;28;20034;-69
2021/12/18 09:03:22;;;;;;;0.00;0.00;;;6.80;99.90;;;;;;4995823;28;20034;-68
2021/12/18 09:05:48;;;;;;;0.00;0.00;;;6.80;99.90;;;;;;4995631;28;20401;-69
2021/12/18 09:08:14;;;;;;;0.00;0.00;;;6.80;99.90;;;;;;4995550;28;20035;-69
2021/12/18 09:10:40;;;;;;;0.00;0.00;;;6.80;99.90;;;;;;4995210;28;20030;-69
2021/12/18 09:13:07;;;;;;;0.00;0.00;;;6.80;99.90;;;;;;4995535;28;20057;-69
2021/12/18 09:15:32;;;;;;;0.00;0.00;;;6.80;99.90;;;;;;4996006;28;20335;-69
2021/12/18 09:17:58;;;;;;;0.00;0.00;;;6.90;99.90;;;;;;4995378;28;20040;-69
2021/12/18 09:20:23;;;;;;;0.00;0.00;;;6.90;99.90;;;;;;5000169;28;20560;-69
2021/12/18 09:22:49;;;;;;;0.00;0.00;;;6.90;99.90;;;;;;4995428;28;20072;-69
2021/12/18 09:25:15;;;;;;;0.00;0.00;;;6.90;99.90;;;;;;4995845;28;20033;-69
2021/12/18 09:27:40;;;;;;;0.00;0.00;;;6.90;99.90;;;;;;4998233;28;20053;-69
2021/12/18 09:30:10;;;;;;;0.00;0.00;;;6.90;99.90;;;;;;4994979;28;20157;-68
2021/12/18 09:32:37;;;;;;;0.00;0.00;;;6.90;99.90;;;;;;5000299;28;20470;-69
2021/12/18 09:35:03;;;;;;;0.00;0.00;;;6.90;99.90;;;;;;4994213;28;20050;-69
2021/12/18 09:37:29;;;;;;;0.00;0.00;;;6.90;99.90;;;;;;4995099;28;20084;-69
2021/12/18 09:39:54;;;;;;;0.00;0.00;;;7.00;99.90;;;;;;4995068;28;20026;-69
2021/12/18 09:42:21;;;;;;;0.00;0.00;;;7.00;99.90;;;;;;4994071;28;20148;-69
2021/12/18 09:44:49;;;;;;;0.00;0.00;;;7.00;99.90;;;;;;4995096;28;20022;-69
2021/12/18 09:47:15;;;;;;;0.00;0.00;;;6.90;99.90;;;;;;4988020;28;20030;-69
2021/12/18 09:49:41;;;;;;;0.00;0.00;;;7.00;99.90;;;;;;4994479;28;20033;-69
2021/12/18 09:52:06;;;;;;;0.00;0.00;;;7.00;99.90;;;;;;5000145;28;20068;-69
2021/12/18 09:54:32;;;;;;;0.00;0.00;;;7.00;99.90;;;;;;4995170;28;20034;-69
2021/12/18 09:56:57;;;;;;;0.00;0.00;;;7.10;99.90;;;;;;4997886;28;20031;-69
2021/12/18 09:59:23;;;;;;;0.00;0.00;;;7.10;99.90;;;;;;4994678;28;20021;-69
2021/12/18 10:01:49;;;;;;;0.00;0.00;;;7.10;99.90;;;;;;4997951;28;20108;-69
2021/12/18 10:04:30;;;;;;;0.00;0.00;;;7.10;99.90;;;;;;4995556;28;20021;-69
2021/12/18 10:06:58;;;;;;;0.00;0.00;;;7.10;99.90;;;;;;4994704;28;20045;-69
2021/12/18 10:09:24;;;;;;;0.00;0.00;;;7.10;99.90;;;;;;4993388;28;20022;-69
2021/12/18 10:11:59;;;;;;;0.00;0.00;;;7.10;99.90;;;;;;4997701;28;20026;-69
2021/12/18 10:14:36;;;;;;;0.00;0.00;;;7.10;99.90;;;;;;4997537;28;20026;-69
2021/12/18 10:17:04;;;;;;;0.00;0.00;;;7.10;99.90;;;;;;4994164;28;20042;-69
2021/12/18 10:19:35;;;;;;;0.00;0.00;;;7.10;99.90;;;;;;4994425;28;20042;-69
2021/12/18 10:22:03;;;;;;;0.00;0.00;;;7.10;99.90;;;;;;4994204;28;20466;-69
2021/12/18 10:24:31;;;;;;;0.00;0.00;;;7.20;99.90;;;;;;4994707;28;20022;-69
2021/12/18 10:26:56;;;;;;;0.00;0.00;;;7.20;99.90;;;;;;4994768;28;20608;-69
2021/12/18 10:29:35;;;;;;;0.00;0.00;;;7.10;99.90;;;;;;4993888;28;20105;-68
2021/12/18 10:32:17;;;;;;;0.00;0.00;;;7.20;99.90;;;;;;4993433;28;20386;-69
2021/12/18 10:34:53;;;;;;;0.00;0.00;;;7.20;99.90;;;;;;4994637;28;20053;-68
2021/12/18 10:37:30;;;;;;;0.00;0.00;;;7.20;99.90;;;;;;5001822;28;20462;-69
2021/12/18 10:40:01;;;;;;;0.00;0.00;;;7.30;99.90;;;;;;4994351;28;20030;-69
2021/12/18 10:42:29;;;;;;;0.00;0.00;;;7.30;99.90;;;;;;5000268;28;20034;-69
2021/12/18 10:45:06;;;;;;;0.00;0.00;;;7.30;99.90;;;;;;4994467;28;20488;-69
2021/12/18 10:47:52;;;;;;;0.00;0.00;;;7.40;99.90;;;;;;4994499;28;20026;-69
2021/12/18 10:50:20;;;;;;;0.00;0.00;;;7.30;99.90;;;;;;4993807;28;20089;-69
2021/12/18 10:52:51;;;;;;;0.00;0.00;;;7.40;99.90;;;;;;4994435;28;20026;-69
2021/12/18 10:55:16;;;;;;;0.00;0.00;;;7.30;99.90;;;;;;4994346;28;20501;-69
2021/12/18 10:57:52;;;;;;;0.00;0.00;;;7.40;99.90;;;;;;4994258;28;20030;-69
2021/12/18 11:00:30;;;;;;;0.00;0.00;;;7.40;99.90;;;;;;4992292;28;20034;-69
2021/12/18 11:02:56;;;;;;;0.00;0.00;;;7.40;99.90;;;;;;4994182;28;20470;-69
2021/12/18 11:05:21;;;;;;;0.00;0.00;;;7.40;99.90;;;;;;4994212;28;20031;-68
2021/12/18 11:07:48;;;;;;;0.00;0.00;;;7.40;99.90;;;;;;4994018;28;20113;-69
2021/12/18 11:10:39;;;;;;;0.00;0.00;;;7.30;99.90;;;;;;4993122;28;20034;-68
2021/12/18 11:15:49;;;;;;;0.00;0.00;;;7.40;99.90;;;;;;4982934;28;20509;-69
2021/12/18 11:18:15;;;;;;;0.00;0.00;;;7.40;99.90;;;;;;4993963;28;20034;-69
2021/12/18 11:20:41;;;;;;;0.00;0.00;;;7.40;99.90;;;;;;4993125;28;20034;-68
2021/12/18 11:23:07;;;;;;;0.00;0.00;;;7.40;99.90;;;;;;4993598;28;20065;-69
2021/12/18 11:25:33;;;;;;;0.00;0.00;;;7.40;99.90;;;;;;4993522;28;20041;-69
2021/12/18 11:27:59;;;;;;;0.00;0.00;;;7.40;99.90;;;;;;4993355;28;20184;-68
2021/12/18 11:30:24;;;;;;;0.00;0.00;;;7.30;99.90;;;;;;4993193;28;20030;-68
2021/12/18 11:32:54;;;;;;;0.00;0.00;;;7.30;99.90;;;;;;4993232;28;20030;-69
2021/12/18 11:35:21;;;;;;;0.00;0.00;;;7.30;99.90;;;;;;4993466;28;20026;-68
2021/12/18 11:37:49;;;;;;;0.00;0.00;;;7.30;99.90;;;;;;4992044;28;20529;-69
2021/12/18 11:40:18;;;;;;;0.00;0.00;;;7.30;99.90;;;;;;4982675;28;20030;-69
2021/12/18 11:42:44;;;;;;;0.00;0.00;;;7.20;99.90;;;;;;4993281;28;20488;-69
2021/12/18 11:45:11;;;;;;;0.00;0.00;;;7.20;99.90;;;;;;4993846;28;20023;-69
2021/12/18 11:47:39;;;;;;;0.00;0.00;;;7.20;99.90;;;;;;4992963;28;20373;-69
2021/12/18 11:50:21;;;;;;;0.00;0.00;;;7.20;99.90;;;;;;4992580;28;20381;-69
2021/12/18 11:53:08;;;;;;;0.00;0.00;;;7.20;99.90;;;;;;4992908;28;20041;-68
2021/12/18 11:55:49;;;;;;;0.00;0.00;;;7.20;99.90;;;;;;4993361;28;20029;-68
2021/12/18 11:58:23;;;;;;;0.00;0.00;;;7.20;99.90;;;;;;4993249;28;20052;-69
2021/12/18 12:00:51;;;;;;;;;;;7.20;99.90;;;;;;4992850;28;20070;-68
2021/12/18 12:03:40;;;;;;;0.00;0.00;;;7.30;99.90;;;;;;4993164;28;19948;-68
2021/12/18 12:06:24;;;;;;;0.00;0.00;;;7.30;99.90;;;;;;4993366;28;20030;-69
2021/12/18 12:08:52;;;;;;;0.00;0.00;;;7.30;99.90;;;;;;4992856;28;20027;-68
2021/12/18 12:11:26;;;;;;;0.00;0.00;;;7.30;99.90;;;;;;4991163;28;20026;-68
2021/12/18 12:14:13;;;;;;;0.00;0.00;;;7.30;99.90;;;;;;4993271;28;20054;-68
2021/12/18 12:16:45;;;;;;;0.00;0.00;;;7.30;99.90;;;;;;4992790;28;20474;-68
2021/12/18 12:19:13;;;;;;;0.00;0.00;;;7.30;99.90;;;;;;4993009;28;20037;-68
2021/12/18 12:21:45;;;;;;;0.00;0.00;;;7.30;99.90;;;;;;4991845;28;20057;-68
2021/12/18 12:24:12;;;;;;;0.00;0.00;;;7.30;99.90;;;;;;4993127;28;20022;-68
2021/12/18 12:26:38;;;;;;;0.00;0.00;;;7.30;99.90;;;;;;4992525;28;20049;-68
2021/12/18 12:29:05;;;;;;;0.00;0.00;;;7.30;99.90;;;;;;4992275;28;20065;-69
2021/12/18 12:31:32;;;;;;;0.00;0.00;;;7.40;99.90;;;;;;4992059;28;20092;-69
2021/12/18 12:34:21;;;;;;;0.00;0.00;;;7.40;99.90;;;;;;4992766;28;20452;-69
2021/12/18 12:36:47;;;;;;;0.00;0.00;;;7.40;99.90;;;;;;4992822;28;20146;-68
2021/12/18 12:39:14;;;;;;;0.00;0.00;;;7.30;99.90;;;;;;4992793;28;20034;-68
2021/12/18 12:41:51;;;;;;;0.00;0.00;;;7.30;99.90;;;;;;4991866;28;20536;-68
2021/12/18 12:44:25;;;;;;;0.00;0.00;;;7.30;99.90;;;;;;4992786;28;20101;-68
2021/12/18 12:47:16;;;;;;;0.00;0.00;;;7.30;99.90;;;;;;4992334;28;20085;-68
2021/12/18 12:49:43;;;;;;;0.00;0.00;;;7.30;99.90;;;;;;4992055;28;20053;-68
2021/12/18 12:52:15;;;;;;;0.00;0.00;;;7.30;99.90;;;;;;4992166;28;20030;-68
2021/12/18 12:54:45;;;;;;;0.00;0.00;;;7.30;99.90;;;;;;4992414;28;20447;-68
2021/12/18 12:57:23;;;;;;;0.00;0.00;;;7.30;99.90;;;;;;4992147;28;20122;-68
2021/12/18 12:59:51;;;;;;;0.00;0.00;;;7.30;99.90;;;;;;4992533;28;20038;-68
2021/12/18 13:02:17;;;;;;;0.00;0.00;;;7.20;99.90;;;;;;4991764;28;20073;-68
2021/12/18 13:04:44;;;;;;;0.00;0.00;;;7.30;99.90;;;;;;4992481;28;20097;-69
2021/12/18 13:07:10;;;;;;;0.00;0.00;;;7.20;99.90;;;;;;4991736;28;20026;-68
2021/12/18 13:09:44;;;;;;;0.00;0.00;;;7.20;99.90;;;;;;4992129;28;20033;-68
2021/12/18 13:12:10;;;;;;;0.00;0.00;;;7.20;99.90;;;;;;4991774;28;20029;-68
2021/12/18 13:14:41;;;;;;;0.00;0.00;;;7.20;99.90;;;;;;4994387;28;20092;-68
2021/12/18 13:17:19;;;;;;;0.00;0.00;;;7.20;99.90;;;;;;4992250;28;20026;-68
2021/12/18 13:19:56;;;;;;;0.00;0.00;;;7.20;99.90;;;;;;4992162;28;20034;-68
2021/12/18 13:22:28;;;;;;;0.00;0.00;;;7.20;99.90;;;;;;4992067;28;20117;-68
2021/12/18 13:25:08;;;;;;;0.00;0.00;;;7.20;99.90;;;;;;4995885;28;20465;-68
2021/12/18 13:27:36;;;;;;;0.00;0.00;;;7.20;99.90;;;;;;4996008;28;20366;-69
2021/12/18 13:30:17;;;;;;;0.00;0.00;;;7.20;99.90;;;;;;4995029;28;20038;-68
2021/12/18 13:32:55;;;;;;;0.00;0.00;;;7.20;99.90;;;;;;4995753;28;20034;-69
2021/12/18 13:35:22;;;;;;;0.00;0.00;;;7.20;99.90;;;;;;4995758;28;20030;-69
2021/12/18 13:38:06;;;;;;;0.00;0.00;;;7.20;99.90;;;;;;4995800;28;20033;-68
2021/12/18 13:40:44;;;;;;;0.00;0.00;;;7.20;99.90;;;;;;4994819;28;20097;-69
2021/12/18 13:43:22;;;;;;;0.00;0.00;;;7.20;99.90;;;;;;4995674;28;20093;-69
2021/12/18 13:46:06;;;;;;;0.00;0.00;;;7.20;99.90;;;;;;4990150;28;20034;-69